Jonesport, Maine
Current Conditions -  °F | °C
As of 3:55 PM on Tuesday 27 Jan 2015 (Local Time) from KBHB Reporting Station
Overcast Overcast  
Wind Chill: -7°   Ceiling: 1900
Heat Index: 14°   Visibility: 0.5mi
Dew Point: 12°   Wind: 32mph
Humidity: 93%   Direction: 20°NNE
Pressure: 29.43"   Gusts: 46mph
Location:  44.53°N, 67.6°W
Report Text: KBHB 272055Z 02028G40KT 1/2SM OVC019 M10/M11 A2943 RMK AO1 57017
Loading
Personal Weather Stations






























Interactive Weather Map New forecast layout! Learn more

10-Day Weather Forecast

Advertisements
Track Severe Weather on mobile